Terminal Aerodrome Forecast
Issued by NWS

Home | Current Version | Previous Version | Text Only | Print | Product List | Glossary On
Versions: 1 2 3 4 5 6 7 8 9 10 11 12 13 14 15 16 17
000
FTUS45 KABQ 252300
TAFAEG
TAF
KAEG 252339Z 2600/2624 26015G25KT P6SM VCSH BKN090
     FM260200 25010KT P6SM SCT070
     FM260800 23006KT P6SM BKN045
     FM261300 21013KT P6SM -SHRA OVC030
     FM261700 25012G21KT 5SM -RA OVC025=

USA.gov is the U.S. government's official web portal to all federal, state and local government web resources and services.